Time;durP1;ratioP1;P1;durP2;ratioP2;P2;SDS_P1;SDS_P2;PMS_P1;PMS_P2;Temp;Humidity;BMP_temperature;BMP_pressure;BME280_temperature;BME280_humidity;BME280_pressure;Samples;Min_cycle;Max_cycle;Signal;HPM_P1;HPM_P2
2021/03/27 00:02:01;;;;;;;10.10;6.05;;;11.10;1.00;;;;;;5088008;28;20048;-75
2021/03/27 00:04:38;;;;;;;10.70;6.70;;;11.30;1.00;;;;;;5084833;28;20091;-74
2021/03/27 00:07:23;;;;;;;9.05;5.82;;;11.30;1.00;;;;;;5089098;28;20054;-75
2021/03/27 00:09:53;;;;;;;7.30;5.68;;;11.40;1.00;;;;;;5086228;28;20426;-74
2021/03/27 00:12:31;;;;;;;10.90;6.03;;;11.50;1.00;;;;;;5091126;28;20086;-74
2021/03/27 00:15:11;;;;;;;8.68;5.93;;;11.60;1.00;;;;;;5084124;28;20042;-75
2021/03/27 00:17:44;;;;;;;7.80;5.40;;;11.70;1.00;;;;;;5088595;28;20050;-75
2021/03/27 00:20:15;;;;;;;12.80;5.22;;;11.80;1.00;;;;;;5089525;28;20090;-75
2021/03/27 00:22:49;;;;;;;8.48;5.57;;;11.70;1.00;;;;;;5088209;28;20047;-74
2021/03/27 00:25:21;;;;;;;7.60;5.55;;;11.80;1.00;;;;;;5085958;28;20135;-75
2021/03/27 00:27:55;;;;;;;9.50;5.65;;;11.90;1.00;;;;;;5088164;28;20501;-74
2021/03/27 00:30:26;;;;;;;8.75;5.05;;;11.90;1.00;;;;;;5087973;28;20051;-74
2021/03/27 00:32:57;;;;;;;9.00;4.82;;;11.90;1.00;;;;;;5088811;28;20047;-74
2021/03/27 00:35:29;;;;;;;9.45;4.90;;;12.00;1.00;;;;;;5084520;28;20710;-74
2021/03/27 00:37:59;;;;;;;8.10;5.40;;;11.90;1.00;;;;;;5087521;28;20052;-75
2021/03/27 00:40:29;;;;;;;10.43;5.50;;;12.00;1.00;;;;;;5088986;28;20054;-74
2021/03/27 00:43:02;;;;;;;11.88;5.65;;;12.00;1.00;;;;;;5086778;28;20056;-74
2021/03/27 00:45:38;;;;;;;6.25;4.90;;;12.00;1.00;;;;;;5086484;28;20060;-74
2021/03/27 00:48:09;;;;;;;6.07;4.75;;;12.00;1.00;;;;;;5088409;28;20048;-73
2021/03/27 00:50:41;;;;;;;9.57;5.05;;;12.10;1.00;;;;;;5089625;28;20147;-76
2021/03/27 00:53:13;;;;;;;7.63;4.25;;;12.00;1.00;;;;;;5087606;28;20062;-74
2021/03/27 00:55:47;;;;;;;9.68;4.80;;;12.00;1.00;;;;;;5084717;28;20055;-75
2021/03/27 00:58:16;;;;;;;7.68;4.85;;;12.00;1.00;;;;;;5086613;28;20181;-74
2021/03/27 01:00:46;;;;;;;6.93;4.43;;;11.90;1.00;;;;;;5087576;28;20047;-74
2021/03/27 01:03:16;;;;;;;5.88;3.97;;;11.90;1.00;;;;;;5087264;28;20040;-74
2021/03/27 01:05:45;;;;;;;9.55;4.18;;;11.80;1.00;;;;;;5085608;28;20073;-73
2021/03/27 01:08:14;;;;;;;8.93;4.10;;;11.80;1.00;;;;;;5086856;28;20525;-75
2021/03/27 01:10:47;;;;;;;6.65;4.47;;;11.70;1.00;;;;;;5089435;28;20074;-75
2021/03/27 01:13:19;;;;;;;6.25;4.57;;;11.70;1.00;;;;;;5086801;28;21167;-74
2021/03/27 01:15:51;;;;;;;7.75;4.82;;;11.70;1.00;;;;;;5084375;28;20494;-74
2021/03/27 01:18:22;;;;;;;6.20;4.25;;;11.70;1.00;;;;;;5088564;28;20048;-74
2021/03/27 01:20:53;;;;;;;5.63;3.80;;;11.70;1.00;;;;;;5088371;28;20068;-74
2021/03/27 01:23:22;;;;;;;5.88;4.00;;;11.70;1.00;;;;;;5084349;28;20066;-74
2021/03/27 01:25:49;;;;;;;5.95;3.72;;;11.70;1.00;;;;;;5084985;28;20049;-74
2021/03/27 01:28:25;;;;;;;6.35;3.65;;;11.70;1.00;;;;;;5085501;28;20048;-75
2021/03/27 01:31:00;;;;;;;4.50;3.75;;;11.80;1.00;;;;;;5087187;28;20391;-72
2021/03/27 01:33:32;;;;;;;4.95;3.67;;;11.80;1.00;;;;;;5084492;28;20055;-74
2021/03/27 01:36:16;;;;;;;7.20;3.90;;;11.80;1.00;;;;;;5084147;28;20040;-75
2021/03/27 01:38:50;;;;;;;6.53;3.60;;;11.80;1.00;;;;;;5086795;28;20048;-74
2021/03/27 01:41:29;;;;;;;5.15;3.50;;;11.90;1.00;;;;;;5088271;28;20051;-75
2021/03/27 01:44:10;;;;;;;5.47;4.15;;;11.90;1.00;;;;;;5084985;28;21349;-73
2021/03/27 01:46:52;;;;;;;6.03;3.75;;;11.90;1.00;;;;;;5086471;28;20771;-75
2021/03/27 01:49:29;;;;;;;8.35;3.83;;;11.80;1.00;;;;;;5085054;28;20063;-75
2021/03/27 01:52:11;;;;;;;6.35;3.95;;;11.80;1.00;;;;;;5089035;28;20044;-73
2021/03/27 01:54:46;;;;;;;5.30;3.78;;;11.70;1.00;;;;;;5080998;28;20383;-74
2021/03/27 01:57:21;;;;;;;6.47;3.58;;;11.60;1.00;;;;;;5084748;28;20056;-74
2021/03/27 01:59:51;;;;;;;5.95;3.67;;;11.40;1.00;;;;;;5087412;28;20063;-73
2021/03/27 02:02:23;;;;;;;7.18;3.95;;;11.20;1.00;;;;;;5088680;28;20044;-74
2021/03/27 02:04:59;;;;;;;5.53;3.90;;;11.00;3.10;;;;;;5082133;28;20120;-73
2021/03/27 02:07:36;;;;;;;5.97;4.28;;;10.90;5.10;;;;;;5086964;28;20056;-74
2021/03/27 02:10:11;;;;;;;8.50;4.35;;;10.70;8.30;;;;;;5088303;28;20043;-73
2021/03/27 02:12:55;;;;;;;7.80;4.40;;;10.60;9.40;;;;;;5085292;28;20048;-74
2021/03/27 02:15:31;;;;;;;8.40;5.40;;;10.60;10.70;;;;;;5082919;28;20055;-74
2021/03/27 02:18:03;;;;;;;7.95;5.05;;;10.50;11.80;;;;;;5086258;28;20506;-75
2021/03/27 02:20:57;;;;;;;7.10;4.70;;;10.40;12.50;;;;;;5085719;28;20573;-74
2021/03/27 02:23:34;;;;;;;8.68;5.22;;;10.40;13.80;;;;;;5084886;28;20044;-73
2021/03/27 02:26:33;;;;;;;7.32;5.13;;;10.40;14.50;;;;;;5083674;28;20040;-73
2021/03/27 02:29:29;;;;;;;7.30;5.40;;;10.30;15.80;;;;;;5087151;28;20052;-73
2021/03/27 02:32:00;;;;;;;;;;;10.30;16.70;;;;;;5087931;28;20059;-73
2021/03/27 02:34:38;;;;;;;8.25;5.38;;;10.20;17.50;;;;;;5082165;28;19927;-73
2021/03/27 02:37:09;;;;;;;7.53;5.13;;;10.20;17.90;;;;;;5086580;28;20044;-73
2021/03/27 02:39:43;;;;;;;6.63;4.65;;;10.20;18.70;;;;;;5089068;28;20059;-73
2021/03/27 02:42:28;;;;;;;8.02;5.32;;;10.10;18.60;;;;;;5085137;28;20612;-72
2021/03/27 02:45:01;;;;;;;6.45;5.07;;;10.10;19.30;;;;;;5083303;28;21075;-74
2021/03/27 02:47:54;;;;;;;11.32;5.70;;;10.10;19.90;;;;;;5083205;28;20056;-72
2021/03/27 02:50:50;;;;;;;7.43;5.47;;;10.00;20.40;;;;;;5089419;28;20052;-72
2021/03/27 02:53:20;;;;;;;12.05;6.50;;;10.00;19.90;;;;;;5084058;28;20040;-73
2021/03/27 02:56:03;;;;;;;7.63;5.82;;;10.00;20.70;;;;;;5082342;28;20060;-73
2021/03/27 02:58:35;;;;;;;7.75;5.10;;;10.00;20.70;;;;;;5086368;28;20044;-73
2021/03/27 03:01:09;;;;;;;8.88;5.70;;;10.00;20.10;;;;;;5086420;28;20421;-73
2021/03/27 03:03:42;;;;;;;;;;;10.00;21.20;;;;;;5082263;28;20048;-75
2021/03/27 03:06:31;;;;;;;6.57;4.50;;;10.00;20.90;;;;;;5084104;28;19920;-74
2021/03/27 03:09:08;;;;;;;6.72;5.15;;;10.00;20.30;;;;;;5083308;28;20066;-74
2021/03/27 03:11:47;;;;;;;7.05;4.55;;;10.00;19.70;;;;;;5087949;28;20054;-74
2021/03/27 03:14:21;;;;;;;8.27;4.63;;;10.00;20.00;;;;;;5082741;28;20055;-74
2021/03/27 03:17:03;;;;;;;7.22;4.65;;;10.00;19.40;;;;;;5086063;28;20044;-74
2021/03/27 03:19:47;;;;;;;7.28;4.75;;;10.00;19.80;;;;;;5084923;28;20445;-74
2021/03/27 03:22:21;;;;;;;7.63;4.32;;;10.00;19.20;;;;;;5087316;28;20044;-74
2021/03/27 03:24:54;;;;;;;6.03;4.00;;;10.00;18.90;;;;;;5082577;28;20104;-74
2021/03/27 03:27:35;;;;;;;4.80;3.78;;;10.00;19.00;;;;;;5086249;28;20048;-74
2021/03/27 03:30:24;;;;;;;6.90;3.95;;;10.00;19.40;;;;;;5084783;28;20051;-74
2021/03/27 03:33:09;;;;;;;5.78;3.70;;;10.00;18.50;;;;;;5087188;28;20052;-74
2021/03/27 03:35:44;;;;;;;6.00;3.60;;;10.00;18.60;;;;;;5086052;28;20043;-74
2021/03/27 03:38:32;;;;;;;5.93;3.80;;;10.00;19.50;;;;;;5092108;28;20044;-73
2021/03/27 03:41:09;;;;;;;6.95;3.50;;;10.00;19.80;;;;;;5084581;28;20422;-72
2021/03/27 03:43:47;;;;;;;5.53;3.05;;;10.00;21.10;;;;;;5086636;28;20055;-73
2021/03/27 03:46:32;;;;;;;4.88;3.28;;;9.50;24.40;;;;;;5085599;28;20045;-73
2021/03/27 03:49:17;;;;;;;3.13;2.30;;;9.30;25.80;;;;;;5091550;28;20126;-73
2021/03/27 03:52:07;;;;;;;2.67;1.48;;;9.10;22.00;;;;;;5090867;28;20218;-74
2021/03/27 03:54:47;;;;;;;2.47;1.48;;;8.90;17.00;;;;;;5085684;28;20079;-73
2021/03/27 03:57:29;;;;;;;2.80;1.38;;;8.70;14.00;;;;;;5088508;28;20063;-73
2021/03/27 03:59:59;;;;;;;2.35;0.90;;;8.70;14.10;;;;;;5089709;28;20280;-74
2021/03/27 04:02:29;;;;;;;2.53;1.08;;;8.60;13.50;;;;;;5088555;28;20059;-75
2021/03/27 04:05:02;;;;;;;2.70;0.95;;;8.60;13.80;;;;;;5085947;28;20078;-71
2021/03/27 04:07:35;;;;;;;1.73;1.17;;;8.50;13.00;;;;;;5090104;28;20048;-71
2021/03/27 04:10:11;;;;;;;1.95;1.30;;;8.50;12.10;;;;;;5088894;28;20045;-72
2021/03/27 04:12:43;;;;;;;2.45;1.48;;;8.50;11.20;;;;;;5086051;28;20048;-72
2021/03/27 04:15:20;;;;;;;1.88;1.20;;;8.40;12.00;;;;;;5086406;28;20128;-73
2021/03/27 04:17:56;;;;;;;2.90;1.10;;;8.30;11.30;;;;;;5085869;28;20044;-72
2021/03/27 04:20:42;;;;;;;2.47;1.30;;;8.30;12.30;;;;;;5089861;28;20054;-73
2021/03/27 04:23:20;;;;;;;2.33;1.35;;;8.30;12.10;;;;;;5086194;28;20055;-71
2021/03/27 04:26:04;;;;;;;5.40;1.73;;;8.30;13.40;;;;;;5085501;28;20051;-73
2021/03/27 04:28:56;;;;;;;1.52;1.02;;;8.20;10.70;;;;;;5087734;28;20052;-71
2021/03/27 04:31:39;;;;;;;1.60;1.02;;;8.10;11.00;;;;;;5090181;28;20056;-72
2021/03/27 04:34:10;;;;;;;1.63;0.90;;;8.10;11.30;;;;;;5083713;28;20147;-72
2021/03/27 04:36:44;;;;;;;5.53;1.20;;;8.00;11.00;;;;;;5085848;28;20044;-73
2021/03/27 04:39:20;;;;;;;1.27;1.00;;;7.90;10.80;;;;;;5087278;28;20063;-72
2021/03/27 04:41:58;;;;;;;3.03;1.10;;;7.90;10.90;;;;;;5089984;28;20138;-72
2021/03/27 04:44:36;;;;;;;4.30;1.55;;;7.90;10.70;;;;;;5084450;28;20052;-73
2021/03/27 04:47:12;;;;;;;2.08;0.95;;;7.80;9.70;;;;;;5086522;28;20486;-73
2021/03/27 04:49:45;;;;;;;1.05;0.65;;;7.80;9.10;;;;;;5088663;28;20538;-74
2021/03/27 04:52:14;;;;;;;0.80;0.60;;;7.60;8.40;;;;;;5089973;28;20047;-74
2021/03/27 04:54:52;;;;;;;0.90;0.63;;;7.50;7.50;;;;;;5083747;28;20684;-74
2021/03/27 04:57:35;;;;;;;2.03;0.60;;;7.40;6.80;;;;;;5087833;28;20056;-73
2021/03/27 05:00:28;;;;;;;1.90;0.73;;;7.40;7.90;;;;;;5088490;28;20059;-74
2021/03/27 05:03:14;;;;;;;2.08;0.73;;;7.20;6.70;;;;;;5055193;28;20101;-74
2021/03/27 05:05:54;;;;;;;0.73;0.63;;;7.10;6.30;;;;;;5081918;28;20060;-73
2021/03/27 05:08:37;;;;;;;1.65;0.77;;;7.00;7.20;;;;;;5086187;28;20059;-73
2021/03/27 05:11:18;;;;;;;1.75;0.70;;;6.90;8.30;;;;;;5087315;28;20051;-72
2021/03/27 05:13:56;;;;;;;2.30;0.93;;;6.90;7.70;;;;;;5086080;28;20082;-74
2021/03/27 05:16:28;;;;;;;1.85;1.17;;;6.90;9.00;;;;;;5084732;28;20036;-73
2021/03/27 05:19:02;;;;;;;1.08;0.82;;;6.90;9.50;;;;;;5087971;28;20056;-73
2021/03/27 05:21:52;;;;;;;3.15;0.90;;;6.90;8.90;;;;;;5086981;28;20058;-72
2021/03/27 05:24:26;;;;;;;1.50;0.70;;;6.90;8.50;;;;;;5083959;28;20059;-74
2021/03/27 05:27:14;;;;;;;0.77;0.60;;;6.90;8.10;;;;;;5086239;28;20067;-76
2021/03/27 05:29:54;;;;;;;1.80;1.00;;;6.80;7.70;;;;;;5088494;28;20406;-74
2021/03/27 05:33:03;;;;;;;4.22;1.80;;;6.80;7.10;;;;;;5086562;28;20048;-73
2021/03/27 05:35:41;;;;;;;1.55;1.10;;;6.80;7.70;;;;;;5045719;28;20149;-73
2021/03/27 05:38:14;;;;;;;1.90;0.55;;;6.80;7.80;;;;;;5087597;28;20051;-74
2021/03/27 05:41:19;;;;;;;4.15;1.02;;;6.80;8.10;;;;;;5090034;28;20048;-73
2021/03/27 05:44:35;;;;;;;1.67;0.75;;;6.80;8.70;;;;;;5084597;28;20063;-75
2021/03/27 05:48:01;;;;;;;0.90;0.75;;;6.80;8.60;;;;;;5086391;28;20859;-73
2021/03/27 05:50:46;;;;;;;1.27;0.80;;;6.80;9.50;;;;;;5088851;28;20052;-74
2021/03/27 05:53:45;;;;;;;1.17;0.85;;;6.80;9.80;;;;;;5085779;28;20101;-74
2021/03/27 05:56:34;;;;;;;1.73;1.10;;;6.70;10.10;;;;;;5081081;28;20067;-73
2021/03/27 05:59:31;;;;;;;1.55;1.02;;;6.70;10.00;;;;;;5085159;28;20044;-73
2021/03/27 06:02:05;;;;;;;1.50;1.27;;;6.70;10.10;;;;;;5086322;28;20055;-73
2021/03/27 06:05:18;;;;;;;2.88;1.50;;;6.60;12.80;;;;;;5081403;28;20144;-72
2021/03/27 06:08:14;;;;;;;2.58;1.25;;;6.50;13.50;;;;;;5085636;28;21228;-73
2021/03/27 06:11:08;;;;;;;1.45;1.10;;;6.40;12.10;;;;;;5086898;28;20148;-73
2021/03/27 06:13:50;;;;;;;1.42;1.08;;;6.50;9.90;;;;;;5086140;28;20048;-71
2021/03/27 06:17:04;;;;;;;2.10;1.45;;;6.50;6.60;;;;;;5083921;28;20067;-74
2021/03/27 06:20:12;;;;;;;4.03;1.38;;;6.70;7.00;;;;;;5085729;28;20052;-74
2021/03/27 06:23:00;;;;;;;2.65;0.90;;;6.70;5.70;;;;;;5084783;28;20440;-74
2021/03/27 06:25:49;;;;;;;1.45;1.20;;;6.70;5.40;;;;;;5081826;28;20498;-72
2021/03/27 06:28:50;;;;;;;4.72;1.30;;;6.70;3.40;;;;;;5086493;28;20048;-74
2021/03/27 06:31:40;;;;;;;2.08;0.93;;;6.80;3.00;;;;;;5084496;28;20048;-72
2021/03/27 06:34:45;;;;;;;4.30;1.20;;;6.70;3.70;;;;;;5082625;28;20097;-73
2021/03/27 06:37:35;;;;;;;1.60;1.08;;;6.80;3.90;;;;;;5084294;28;20417;-74
2021/03/27 06:40:41;;;;;;;1.40;0.82;;;6.80;3.20;;;;;;5087672;28;20109;-73
2021/03/27 06:43:24;;;;;;;3.15;0.90;;;6.80;1.00;;;;;;5084347;28;20040;-72
2021/03/27 06:46:01;;;;;;;2.45;1.00;;;6.80;1.00;;;;;;5080250;28;20040;-74
2021/03/27 06:49:02;;;;;;;1.70;0.90;;;6.90;1.00;;;;;;5088047;28;20052;-74
2021/03/27 06:51:57;;;;;;;2.90;0.90;;;7.30;1.00;;;;;;5084553;28;20053;-74
2021/03/27 06:54:46;;;;;;;2.07;1.17;;;7.30;1.00;;;;;;5082582;28;20054;-74
2021/03/27 06:57:51;;;;;;;1.33;1.05;;;7.00;1.00;;;;;;5083873;28;20043;-73
2021/03/27 07:00:44;;;;;;;2.17;1.08;;;6.90;1.00;;;;;;5025898;28;20042;-73
2021/03/27 07:04:19;;;;;;;3.85;1.02;;;6.90;1.00;;;;;;5083413;28;20047;-74
2021/03/27 07:07:09;;;;;;;2.90;1.30;;;6.60;2.60;;;;;;5085367;28;20051;-74
2021/03/27 07:10:18;;;;;;;4.03;1.25;;;6.00;7.60;;;;;;5081593;28;20048;-75
2021/03/27 07:13:18;;;;;;;2.47;1.42;;;5.90;7.50;;;;;;5083562;28;20478;-73
2021/03/27 07:16:16;;;;;;;3.45;1.35;;;6.20;6.60;;;;;;5081052;28;20497;-73
2021/03/27 07:19:16;;;;;;;3.70;1.65;;;6.60;6.20;;;;;;5085074;28;20490;-73
2021/03/27 07:21:54;;;;;;;5.63;1.73;;;6.40;4.50;;;;;;5087179;28;20059;-73
2021/03/27 07:24:42;;;;;;;2.78;1.50;;;6.40;4.00;;;;;;5081191;28;20055;-73
2021/03/27 07:27:49;;;;;;;6.50;1.38;;;6.50;2.60;;;;;;5084172;28;20090;-74
2021/03/27 07:30:38;;;;;;;3.80;1.17;;;6.90;1.00;;;;;;5085147;28;20066;-74
2021/03/27 07:33:42;;;;;;;2.53;1.00;;;7.10;1.00;;;;;;5079464;28;20508;-74
2021/03/27 07:36:32;;;;;;;;;;;7.50;1.00;;;;;;5081702;28;20059;-72
2021/03/27 07:39:28;;;;;;;1.73;0.90;;;7.50;1.00;;;;;;5080092;28;20493;-74
2021/03/27 07:42:27;;;;;;;2.63;1.27;;;7.70;1.00;;;;;;5082405;28;20539;-74
2021/03/27 07:45:03;;;;;;;;;;;7.80;1.00;;;;;;5051344;28;20056;-73
2021/03/27 07:47:58;;;;;;;3.47;0.65;;;8.10;1.00;;;;;;5084819;28;20285;-74
2021/03/27 07:50:56;;;;;;;1.63;0.68;;;8.10;1.00;;;;;;5085120;28;20052;-73
2021/03/27 07:54:03;;;;;;;5.18;1.10;;;8.20;1.00;;;;;;5020484;28;20435;-73
2021/03/27 07:56:50;;;;;;;2.58;1.08;;;8.10;1.00;;;;;;5034171;28;20047;-74
2021/03/27 07:59:34;;;;;;;3.47;0.60;;;8.40;1.00;;;;;;5086001;28;20113;-74
2021/03/27 08:02:22;;;;;;;2.13;0.90;;;8.40;1.00;;;;;;5086974;28;20076;-74
2021/03/27 08:05:09;;;;;;;4.15;0.80;;;8.80;1.00;;;;;;5082313;28;20137;-73
2021/03/27 08:08:11;;;;;;;2.65;0.77;;;8.60;1.00;;;;;;5087950;28;20484;-73
2021/03/27 08:11:02;;;;;;;0.68;0.52;;;9.00;1.00;;;;;;5075570;28;20506;-74
2021/03/27 08:13:55;;;;;;;2.92;0.68;;;8.80;1.00;;;;;;5084714;28;20060;-74
2021/03/27 08:17:00;;;;;;;1.70;0.70;;;8.60;1.00;;;;;;5080442;28;20141;-74
2021/03/27 08:19:47;;;;;;;1.90;1.00;;;8.60;1.00;;;;;;5091280;28;20063;-74
2021/03/27 08:22:48;;;;;;;1.40;0.60;;;8.70;1.00;;;;;;5087883;28;20060;-74
2021/03/27 08:25:20;;;;;;;2.58;0.70;;;8.90;1.00;;;;;;5086313;28;20047;-74
2021/03/27 08:28:04;;;;;;;2.25;0.55;;;8.90;1.00;;;;;;5087600;28;20058;-73
2021/03/27 08:30:55;;;;;;;2.70;0.43;;;8.90;1.00;;;;;;5089511;28;20048;-74
2021/03/27 08:34:01;;;;;;;2.45;0.57;;;9.30;1.00;;;;;;5086918;28;20083;-74
2021/03/27 08:36:59;;;;;;;3.13;0.40;;;9.20;1.00;;;;;;5084142;28;20059;-74
2021/03/27 08:39:56;;;;;;;2.08;0.82;;;9.00;1.00;;;;;;5090021;28;20063;-74
2021/03/27 08:42:48;;;;;;;2.05;1.05;;;9.50;1.00;;;;;;5087031;28;20059;-75
2021/03/27 08:45:35;;;;;;;3.72;0.82;;;9.30;1.00;;;;;;5084541;28;20048;-74
2021/03/27 08:48:25;;;;;;;0.77;0.32;;;8.90;1.00;;;;;;5087667;28;20123;-75
2021/03/27 08:51:06;;;;;;;2.50;1.00;;;9.20;1.00;;;;;;5086572;28;20052;-74
2021/03/27 08:54:36;;;;;;;3.80;0.63;;;9.20;1.00;;;;;;5081019;28;20051;-74
2021/03/27 08:57:20;;;;;;;2.58;0.55;;;9.70;1.00;;;;;;5087941;28;20520;-75
2021/03/27 09:00:04;;;;;;;1.42;0.52;;;10.00;1.00;;;;;;5087536;28;20044;-75
2021/03/27 09:02:56;;;;;;;3.38;0.80;;;10.10;1.00;;;;;;5086979;28;20059;-75
2021/03/27 09:05:35;;;;;;;1.33;0.60;;;10.20;1.00;;;;;;5084822;28;20044;-73
2021/03/27 09:08:34;;;;;;;2.05;0.60;;;10.40;1.00;;;;;;5086583;28;20040;-74
2021/03/27 09:11:19;;;;;;;2.45;0.40;;;9.70;1.00;;;;;;5088918;28;20505;-74
2021/03/27 09:14:18;;;;;;;2.30;0.57;;;9.00;1.00;;;;;;5084897;28;20044;-74
2021/03/27 09:17:13;;;;;;;1.92;0.60;;;9.10;1.00;;;;;;5086971;28;20048;-74
2021/03/27 09:20:21;;;;;;;3.22;0.93;;;9.50;1.00;;;;;;5088888;28;20048;-73
2021/03/27 09:22:58;;;;;;;1.83;0.68;;;9.70;1.00;;;;;;5087243;28;20416;-73
2021/03/27 09:25:54;;;;;;;3.35;0.75;;;9.70;1.00;;;;;;5084237;28;20052;-73
2021/03/27 09:28:35;;;;;;;2.15;0.50;;;9.80;1.00;;;;;;5088071;28;20059;-74
2021/03/27 09:31:41;;;;;;;3.20;0.77;;;9.10;1.00;;;;;;5088195;28;20040;-74
2021/03/27 09:34:18;;;;;;;1.52;0.70;;;9.30;1.00;;;;;;5084853;28;20044;-74
2021/03/27 09:36:51;;;;;;;1.23;0.60;;;9.30;1.00;;;;;;5085202;28;20050;-74
2021/03/27 09:39:26;;;;;;;1.40;0.50;;;9.40;1.00;;;;;;5088031;28;20055;-74
2021/03/27 09:42:14;;;;;;;5.53;0.60;;;9.40;1.00;;;;;;5086469;28;20048;-76
2021/03/27 09:45:01;;;;;;;3.90;1.58;;;9.90;1.00;;;;;;5072071;28;20064;-74
2021/03/27 09:47:57;;;;;;;1.98;1.00;;;10.30;1.00;;;;;;5086004;28;20080;-74
2021/03/27 09:50:36;;;;;;;2.65;0.77;;;9.70;1.00;;;;;;5071748;28;20063;-75
2021/03/27 09:53:11;;;;;;;2.28;0.80;;;9.90;1.00;;;;;;5086301;28;20048;-75
2021/03/27 09:55:52;;;;;;;3.47;0.60;;;10.20;1.00;;;;;;5082159;28;20051;-74
2021/03/27 09:58:41;;;;;;;2.03;0.50;;;10.30;1.00;;;;;;5086234;28;20044;-74
2021/03/27 10:01:23;;;;;;;1.95;0.60;;;9.40;1.00;;;;;;5080147;28;20152;-75
2021/03/27 10:04:02;;;;;;;2.35;0.60;;;9.70;1.00;;;;;;5081691;28;20044;-75
2021/03/27 10:07:03;;;;;;;3.90;1.00;;;10.00;1.00;;;;;;5083086;28;20056;-78
2021/03/27 10:09:50;;;;;;;3.85;0.70;;;10.00;1.00;;;;;;5080157;28;20048;-76
2021/03/27 10:12:24;;;;;;;2.42;0.75;;;9.50;1.00;;;;;;5086817;28;20055;-76
2021/03/27 10:14:55;;;;;;;2.25;0.63;;;9.60;1.00;;;;;;5082145;28;20060;-75
2021/03/27 10:17:31;;;;;;;2.67;0.70;;;9.50;1.00;;;;;;5085803;28;20052;-76
2021/03/27 10:20:09;;;;;;;3.75;0.85;;;9.50;1.00;;;;;;5083906;28;20074;-75
2021/03/27 10:22:42;;;;;;;2.28;0.63;;;9.60;1.00;;;;;;5081770;28;20413;-77
2021/03/27 10:25:24;;;;;;;2.38;0.57;;;9.50;1.00;;;;;;5082203;28;20062;-76
2021/03/27 10:28:00;;;;;;;4.30;1.40;;;10.10;1.00;;;;;;5088167;28;20063;-76
2021/03/27 10:30:39;;;;;;;1.80;0.55;;;10.40;1.00;;;;;;5085699;28;20063;-77
2021/03/27 10:33:16;;;;;;;4.68;0.98;;;10.90;1.00;;;;;;5086504;28;20055;-76
2021/03/27 10:36:19;;;;;;;1.50;0.63;;;10.50;1.00;;;;;;5085389;28;20056;-77
2021/03/27 10:39:19;;;;;;;3.65;0.95;;;9.70;1.00;;;;;;5089662;28;20047;-76
2021/03/27 10:42:13;;;;;;;1.40;0.40;;;9.80;1.00;;;;;;5085479;28;20284;-77
2021/03/27 10:44:50;;;;;;;2.30;0.60;;;10.10;1.00;;;;;;5080181;28;20516;-77
2021/03/27 10:47:23;;;;;;;1.48;0.60;;;10.60;1.00;;;;;;5084690;28;20046;-77
2021/03/27 10:49:59;;;;;;;2.60;0.68;;;10.90;1.00;;;;;;5085086;28;20050;-77
2021/03/27 10:52:50;;;;;;;3.65;0.80;;;10.90;1.00;;;;;;5086385;28;20058;-76
2021/03/27 10:55:46;;;;;;;2.67;0.77;;;10.80;1.00;;;;;;5086134;28;20058;-76
2021/03/27 10:58:30;;;;;;;2.85;0.70;;;10.70;1.00;;;;;;5085206;28;20047;-76
2021/03/27 11:01:12;;;;;;;1.80;0.63;;;10.70;1.00;;;;;;5090060;28;20508;-77
2021/03/27 11:04:05;;;;;;;5.30;0.60;;;10.40;1.00;;;;;;5083592;28;20059;-77
2021/03/27 11:06:51;;;;;;;1.60;0.70;;;10.30;1.00;;;;;;5087309;28;20052;-77
2021/03/27 11:10:23;;;;;;;1.75;1.02;;;10.80;1.00;;;;;;5089788;28;20060;-78
2021/03/27 11:13:33;;;;;;;5.10;1.10;;;10.80;1.00;;;;;;5084894;28;20052;-76
2021/03/27 11:16:24;;;;;;;5.75;1.15;;;10.90;1.00;;;;;;5068333;28;20060;-77
2021/03/27 11:19:19;;;;;;;4.45;1.20;;;10.70;1.00;;;;;;5088527;28;20036;-78
2021/03/27 11:21:56;;;;;;;;;;;10.60;1.00;;;;;;5089986;28;20044;-76
2021/03/27 11:24:55;;;;;;;1.35;0.90;;;10.30;1.00;;;;;;5084355;28;19935;-76
2021/03/27 11:27:44;;;;;;;3.58;0.90;;;9.90;1.00;;;;;;5087623;28;20044;-77
2021/03/27 11:30:20;;;;;;;2.28;0.60;;;10.10;1.00;;;;;;5087617;28;20067;-76
2021/03/27 11:32:53;;;;;;;1.77;0.60;;;10.40;1.00;;;;;;5084092;28;20060;-76
2021/03/27 11:35:23;;;;;;;1.13;0.57;;;10.60;1.00;;;;;;5082223;28;20084;-77
2021/03/27 11:38:17;;;;;;;3.40;0.90;;;10.30;1.00;;;;;;5088939;28;20051;-76
2021/03/27 11:40:55;;;;;;;2.33;0.60;;;10.50;1.00;;;;;;5088094;28;20109;-78
2021/03/27 11:44:06;;;;;;;4.10;0.85;;;10.60;1.00;;;;;;5084650;28;20058;-77
2021/03/27 11:46:39;;;;;;;5.10;0.90;;;11.10;1.00;;;;;;5083650;28;20048;-75
2021/03/27 11:49:16;;;;;;;2.50;1.00;;;11.00;1.00;;;;;;5086372;28;20044;-77
2021/03/27 11:51:48;;;;;;;1.73;0.60;;;10.70;1.00;;;;;;5087322;28;20059;-75
2021/03/27 11:54:42;;;;;;;3.33;0.93;;;11.00;1.00;;;;;;5087757;28;20052;-75
2021/03/27 11:57:32;;;;;;;3.38;0.60;;;10.60;1.00;;;;;;5091470;28;20268;-78
2021/03/27 12:03:17;;;;;;;3.08;0.90;;;10.60;1.00;;;;;;5088807;28;20127;-77
2021/03/27 12:05:50;;;;;;;5.80;1.10;;;10.80;1.00;;;;;;5086631;28;20060;-77
2021/03/27 12:08:24;;;;;;;2.45;0.90;;;10.80;1.00;;;;;;5089574;28;20044;-78
2021/03/27 12:11:08;;;;;;;2.13;0.88;;;10.90;1.00;;;;;;5091139;28;20051;-76
2021/03/27 12:13:41;;;;;;;1.45;0.68;;;11.00;1.00;;;;;;5087945;28;20055;-77
2021/03/27 12:16:18;;;;;;;3.85;1.15;;;10.80;1.00;;;;;;5088405;28;20429;-76
2021/03/27 12:19:17;;;;;;;3.30;1.08;;;10.80;1.00;;;;;;5091372;28;20047;-75
2021/03/27 12:21:50;;;;;;;2.30;1.33;;;11.50;1.00;;;;;;5092063;28;20089;-77
2021/03/27 12:24:26;;;;;;;5.10;0.70;;;11.80;1.00;;;;;;5084494;28;20048;-77
2021/03/27 12:27:01;;;;;;;3.22;0.98;;;11.60;1.00;;;;;;5089438;28;20051;-76
2021/03/27 12:29:38;;;;;;;4.15;1.30;;;11.40;1.00;;;;;;5091608;28;20052;-76
2021/03/27 12:32:37;;;;;;;3.85;0.93;;;11.90;1.00;;;;;;5091181;28;20044;-77
2021/03/27 12:35:14;;;;;;;2.38;0.75;;;12.20;1.00;;;;;;5087446;28;20055;-76
2021/03/27 12:37:49;;;;;;;2.90;0.85;;;12.40;1.00;;;;;;5087456;28;20044;-76
2021/03/27 12:40:22;;;;;;;;;;;11.80;1.00;;;;;;5092514;28;20048;-75
2021/03/27 12:42:52;;;;;;;1.80;0.60;;;12.20;1.00;;;;;;5090214;28;19928;-75
2021/03/27 12:45:22;;;;;;;3.70;0.93;;;11.30;1.00;;;;;;5090347;28;20126;-75
2021/03/27 12:47:59;;;;;;;6.35;1.30;;;11.40;1.00;;;;;;5087438;28;20044;-75
2021/03/27 12:50:34;;;;;;;3.63;0.73;;;11.30;1.00;;;;;;5092479;28;20129;-75
2021/03/27 12:53:24;;;;;;;3.00;0.90;;;11.30;1.00;;;;;;5086502;28;20040;-75
2021/03/27 12:56:08;;;;;;;3.08;0.80;;;11.80;1.00;;;;;;5088788;28;20052;-76
2021/03/27 12:58:46;;;;;;;2.53;1.63;;;11.50;1.00;;;;;;5088458;28;20044;-75
2021/03/27 13:01:32;;;;;;;2.03;0.80;;;11.10;1.00;;;;;;5090738;28;20060;-75
2021/03/27 13:04:45;;;;;;;2.83;0.60;;;11.30;1.00;;;;;;5087282;28;20455;-75
2021/03/27 13:07:23;;;;;;;2.97;0.95;;;11.00;1.00;;;;;;5092587;28;20444;-75
2021/03/27 13:10:36;;;;;;;2.38;0.95;;;11.10;1.00;;;;;;5087826;28;20059;-76
2021/03/27 13:13:18;;;;;;;3.45;0.75;;;11.60;1.00;;;;;;5028175;28;20048;-76
2021/03/27 13:15:50;;;;;;;2.97;0.70;;;11.60;1.00;;;;;;5071895;28;20048;-74
2021/03/27 13:19:03;;;;;;;5.93;0.90;;;11.90;1.00;;;;;;5086958;28;20140;-76
2021/03/27 13:21:40;;;;;;;3.10;0.90;;;11.80;1.00;;;;;;5090567;28;20048;-73
2021/03/27 13:24:19;;;;;;;2.53;0.60;;;11.40;1.00;;;;;;5083923;28;20051;-77
2021/03/27 13:26:48;;;;;;;2.90;0.75;;;10.90;1.00;;;;;;5084995;28;20078;-76
2021/03/27 13:29:32;;;;;;;3.58;0.90;;;11.20;1.00;;;;;;5089906;28;20048;-76
2021/03/27 13:32:06;;;;;;;2.55;0.95;;;11.20;1.00;;;;;;5090858;28;20397;-76
2021/03/27 13:34:36;;;;;;;2.92;0.75;;;11.30;1.00;;;;;;5085694;28;20086;-75
2021/03/27 13:37:10;;;;;;;3.72;1.20;;;11.30;1.00;;;;;;5088047;28;20048;-76
2021/03/27 13:39:41;;;;;;;4.60;1.30;;;11.60;1.00;;;;;;5087627;28;20048;-77
2021/03/27 13:42:31;;;;;;;3.22;1.17;;;11.40;1.00;;;;;;5090402;28;20067;-75
2021/03/27 13:45:14;;;;;;;4.38;1.02;;;10.90;1.00;;;;;;5086287;28;20048;-75
2021/03/27 13:47:44;;;;;;;7.80;1.20;;;11.20;1.00;;;;;;5088414;28;20036;-75
2021/03/27 13:50:28;;;;;;;3.55;1.00;;;11.30;1.00;;;;;;5088039;28;20056;-75
2021/03/27 13:53:18;;;;;;;2.38;0.60;;;11.20;1.00;;;;;;5087088;28;20051;-78
2021/03/27 13:55:56;;;;;;;2.33;0.85;;;10.90;1.00;;;;;;5087445;28;20047;-77
2021/03/27 13:58:25;;;;;;;2.72;0.60;;;11.30;1.00;;;;;;5091092;28;20048;-78
2021/03/27 14:01:00;;;;;;;5.07;1.10;;;11.10;1.00;;;;;;5087671;28;20048;-76
2021/03/27 14:03:33;;;;;;;;;;;11.20;1.00;;;;;;5086377;28;20047;-76
2021/03/27 14:06:18;;;;;;;4.90;0.98;;;11.00;1.00;;;;;;5086867;28;19920;-75
2021/03/27 14:09:08;;;;;;;2.50;0.80;;;11.20;1.00;;;;;;5089034;28;20044;-75
2021/03/27 14:11:45;;;;;;;1.58;0.98;;;11.10;1.00;;;;;;5086133;28;20132;-76
2021/03/27 14:14:19;;;;;;;3.28;1.02;;;11.40;1.00;;;;;;5086315;28;20489;-76
2021/03/27 14:17:00;;;;;;;2.92;1.00;;;11.40;1.00;;;;;;5088455;28;20054;-75
2021/03/27 14:19:42;;;;;;;3.95;0.90;;;11.00;1.00;;;;;;5088935;28;20043;-76
2021/03/27 14:22:32;;;;;;;5.43;0.93;;;11.20;1.00;;;;;;5089762;28;20048;-76
2021/03/27 14:25:30;;;;;;;5.10;1.40;;;11.20;1.00;;;;;;5085645;28;20048;-76
2021/03/27 14:28:18;;;;;;;2.60;1.00;;;11.00;1.00;;;;;;5086685;28;20498;-76
2021/03/27 14:31:00;;;;;;;2.13;0.82;;;11.00;1.00;;;;;;5087330;28;20047;-76